createdAt,value
2018-07-15T00:00:15.201Z,22.00
2018-07-15T00:02:45.849Z,21.90
2018-07-15T00:05:16.490Z,21.30
2018-07-15T00:07:47.713Z,20.60
2018-07-15T00:10:18.366Z,20.00
2018-07-15T00:12:49.045Z,19.50
2018-07-15T00:15:21.103Z,19.30
2018-07-15T00:17:51.779Z,19.10
2018-07-15T00:20:22.460Z,19.00
2018-07-15T00:22:54.778Z,18.90
2018-07-15T00:25:25.973Z,18.80
2018-07-15T00:27:57.096Z,18.80
2018-07-15T00:30:28.451Z,18.80
2018-07-15T00:32:59.183Z,18.90
2018-07-15T00:35:29.845Z,19.00
2018-07-15T00:38:00.930Z,19.00
2018-07-15T00:40:31.576Z,19.00
2018-07-15T00:43:03.136Z,18.90
2018-07-15T00:45:34.633Z,18.80
2018-07-15T00:48:05.893Z,18.80
2018-07-15T00:50:37.268Z,18.80
2018-07-15T00:53:08.515Z,18.90
2018-07-15T00:55:39.828Z,18.90
2018-07-15T00:58:11.067Z,18.90
2018-07-15T01:00:47.168Z,18.90
2018-07-15T01:03:18.532Z,18.90
2018-07-15T01:05:49.736Z,18.90
2018-07-15T01:08:21.390Z,18.90
2018-07-15T01:18:25.033Z,19.00
2018-07-15T01:20:56.088Z,19.00
2018-07-15T01:23:27.488Z,19.00
2018-07-15T01:25:58.682Z,19.00
2018-07-15T01:28:29.842Z,19.30
2018-07-15T01:31:01.122Z,19.10
2018-07-15T01:33:32.250Z,19.10
2018-07-15T01:36:03.644Z,19.20
2018-07-15T01:38:35.025Z,19.20
2018-07-15T01:41:06.678Z,19.40
2018-07-15T01:48:39.419Z,19.20
2018-07-15T01:51:10.772Z,19.30
2018-07-15T01:53:42.168Z,19.10
2018-07-15T01:56:13.595Z,18.80
2018-07-15T01:58:44.920Z,18.90
2018-07-15T02:01:16.591Z,18.90
2018-07-15T02:03:47.895Z,19.00
2018-07-15T02:06:19.587Z,19.00
2018-07-15T02:11:21.918Z,19.10
2018-07-15T02:13:53.136Z,19.50
2018-07-15T02:16:24.326Z,19.20
2018-07-15T02:18:55.676Z,19.20
2018-07-15T02:21:27.112Z,19.20
2018-07-15T02:23:58.243Z,19.50
2018-07-15T02:26:29.847Z,19.80
2018-07-15T02:29:01.183Z,19.70
2018-07-15T02:31:32.649Z,19.70
2018-07-15T02:34:03.978Z,19.50
2018-07-15T02:36:35.375Z,19.40
2018-07-15T02:39:08.689Z,19.70
2018-07-15T02:41:40.382Z,19.40
2018-07-15T02:49:13.848Z,19.50
2018-07-15T02:51:45.063Z,19.40
2018-07-15T02:54:16.267Z,19.30
2018-07-15T02:56:47.451Z,19.40
2018-07-15T02:59:19.100Z,19.60
2018-07-15T03:01:50.453Z,19.90
2018-07-15T03:04:21.635Z,19.90
2018-07-15T03:06:53.147Z,19.50
2018-07-15T03:09:24.352Z,19.30
2018-07-15T03:11:55.442Z,19.10
2018-07-15T03:14:27.072Z,19.10
2018-07-15T03:19:29.638Z,19.20
2018-07-15T03:22:01.201Z,19.00
2018-07-15T03:24:32.334Z,19.10
2018-07-15T03:27:03.747Z,19.10
2018-07-15T03:29:34.892Z,19.20
2018-07-15T03:32:06.288Z,19.50
2018-07-15T03:34:37.438Z,19.50
2018-07-15T03:37:08.584Z,19.50
2018-07-15T03:39:39.661Z,19.60
2018-07-15T03:42:11.680Z,19.40
2018-07-15T03:44:42.879Z,19.30
2018-07-15T03:47:14.076Z,19.00
2018-07-15T03:49:45.684Z,19.20
2018-07-15T03:52:16.864Z,19.40
2018-07-15T03:54:48.025Z,19.20
2018-07-15T03:57:26.140Z,19.30
2018-07-15T03:59:58.111Z,19.40
2018-07-15T04:02:29.451Z,19.50
2018-07-15T04:05:00.796Z,19.50
2018-07-15T04:07:31.991Z,19.30
2018-07-15T04:10:03.271Z,19.00
2018-07-15T04:12:34.623Z,19.40
2018-07-15T04:15:05.881Z,19.50
2018-07-15T04:17:37.024Z,19.30
2018-07-15T04:20:08.564Z,19.50
2018-07-15T04:22:39.926Z,19.30
2018-07-15T04:25:11.360Z,19.20
2018-07-15T04:27:42.536Z,19.30
2018-07-15T04:30:13.932Z,19.40
2018-07-15T04:32:45.437Z,19.40
2018-07-15T04:35:17.231Z,19.40
2018-07-15T04:37:48.355Z,19.50
2018-07-15T04:40:19.827Z,19.60
2018-07-15T04:42:51.192Z,19.40
2018-07-15T04:45:22.276Z,19.20
2018-07-15T04:47:54.339Z,19.20
2018-07-15T04:50:25.875Z,19.40
2018-07-15T04:52:57.043Z,19.30
2018-07-15T04:55:28.375Z,19.20
2018-07-15T04:57:59.564Z,19.20
2018-07-15T05:00:30.775Z,19.20
2018-07-15T05:03:02.555Z,19.20
2018-07-15T05:05:34.705Z,19.10
2018-07-15T05:08:05.752Z,19.30
2018-07-15T05:10:37.161Z,19.40
2018-07-15T05:13:08.282Z,19.50
2018-07-15T05:15:39.311Z,19.40
2018-07-15T05:18:10.475Z,19.30
2018-07-15T05:20:41.667Z,19.20
2018-07-15T05:23:12.664Z,19.40
2018-07-15T05:25:43.892Z,19.40
2018-07-15T05:28:18.233Z,19.50
2018-07-15T05:30:49.630Z,19.50
2018-07-15T05:33:21.011Z,19.40
2018-07-15T05:35:52.341Z,19.50
2018-07-15T05:38:23.617Z,19.50
2018-07-15T05:40:54.995Z,19.60
2018-07-15T05:43:26.367Z,19.60
2018-07-15T05:45:57.711Z,19.50
2018-07-15T05:48:29.371Z,19.40
2018-07-15T05:51:00.737Z,19.40
2018-07-15T05:53:32.114Z,19.40
2018-07-15T05:56:03.460Z,19.60
2018-07-15T05:58:34.948Z,19.70
2018-07-15T06:01:06.892Z,19.70
2018-07-15T06:03:38.224Z,19.80
2018-07-15T06:06:10.083Z,19.90
2018-07-15T06:08:41.181Z,19.90
2018-07-15T06:11:12.373Z,19.80
2018-07-15T06:13:43.468Z,19.90
2018-07-15T06:16:15.615Z,20.00
2018-07-15T06:18:46.996Z,20.10
2018-07-15T06:21:18.398Z,20.10
2018-07-15T06:23:49.548Z,20.20
2018-07-15T06:26:21.000Z,20.20
2018-07-15T06:28:52.484Z,20.30
2018-07-15T06:31:23.680Z,20.40
2018-07-15T06:33:54.691Z,20.50
2018-07-15T06:36:25.987Z,20.60
2018-07-15T06:38:57.329Z,20.70
2018-07-15T06:41:28.720Z,20.90
2018-07-15T06:44:00.034Z,21.00
2018-07-15T06:46:31.290Z,21.10
2018-07-15T06:49:02.495Z,21.30
2018-07-15T06:51:33.619Z,21.40
2018-07-15T06:54:05.116Z,21.40
2018-07-15T06:56:36.551Z,21.30
2018-07-15T06:59:07.716Z,21.40
2018-07-15T07:01:39.047Z,21.40
2018-07-15T07:04:10.434Z,21.70
2018-07-15T07:06:41.750Z,22.00
2018-07-15T07:09:12.953Z,22.10
2018-07-15T07:11:44.110Z,22.30
2018-07-15T07:14:15.366Z,22.40
2018-07-15T07:16:46.712Z,22.50
2018-07-15T07:19:17.891Z,22.60
2018-07-15T07:21:49.142Z,22.90
2018-07-15T07:24:20.696Z,23.10
2018-07-15T07:26:52.132Z,23.30
2018-07-15T07:29:23.435Z,23.50
2018-07-15T07:31:54.725Z,23.60
2018-07-15T07:34:26.025Z,23.80
2018-07-15T07:36:57.491Z,23.90
2018-07-15T07:39:28.628Z,24.10
2018-07-15T07:41:59.998Z,24.40
2018-07-15T07:44:31.623Z,24.50
2018-07-15T07:47:03.166Z,24.20
2018-07-15T07:49:34.552Z,24.50
2018-07-15T07:52:05.775Z,24.80
2018-07-15T07:54:36.939Z,25.00
2018-07-15T07:57:08.403Z,25.00
2018-07-15T07:59:39.520Z,24.90
2018-07-15T08:02:10.971Z,25.20
2018-07-15T08:04:46.875Z,25.40
2018-07-15T08:07:18.233Z,25.80
2018-07-15T08:09:49.700Z,25.30
2018-07-15T08:12:20.980Z,25.60
2018-07-15T08:14:53.021Z,26.20
2018-07-15T08:17:24.357Z,26.60
2018-07-15T08:19:56.009Z,26.80
2018-07-15T08:22:27.400Z,27.00
2018-07-15T08:24:58.730Z,27.00
2018-07-15T08:27:30.363Z,26.80
2018-07-15T08:30:18.000Z,26.20
2018-07-15T08:32:49.285Z,26.40
2018-07-15T08:35:20.880Z,26.90
2018-07-15T08:37:52.398Z,27.10
2018-07-15T08:40:23.785Z,26.70
2018-07-15T08:42:55.150Z,27.30
2018-07-15T08:45:26.903Z,27.40
2018-07-15T08:47:57.900Z,27.50
2018-07-15T08:50:29.135Z,27.10
2018-07-15T08:53:00.502Z,27.50
2018-07-15T08:55:31.724Z,27.50
2018-07-15T08:58:03.076Z,27.70
2018-07-15T09:00:34.267Z,27.20
2018-07-15T09:03:05.533Z,27.50
2018-07-15T09:05:36.839Z,27.70
2018-07-15T09:08:08.287Z,28.30
2018-07-15T09:10:39.639Z,27.90
2018-07-15T09:13:10.912Z,28.00
2018-07-15T09:16:44.949Z,28.60
2018-07-15T09:19:22.986Z,28.80
2018-07-15T09:21:54.314Z,29.00
2018-07-15T09:24:25.591Z,29.50
2018-07-15T09:26:57.004Z,29.00
2018-07-15T09:29:29.010Z,28.30
2018-07-15T09:32:00.346Z,27.80
2018-07-15T09:34:31.596Z,28.30
2018-07-15T09:37:03.212Z,29.00
2018-07-15T09:39:34.704Z,28.60
2018-07-15T09:42:06.866Z,28.50
2018-07-15T09:44:38.858Z,29.30
2018-07-15T09:47:10.247Z,29.80
2018-07-15T09:49:41.940Z,29.40
2018-07-15T09:52:13.497Z,29.20
2018-07-15T09:54:44.811Z,29.50
2018-07-15T09:57:15.991Z,30.80
2018-07-15T09:59:47.889Z,30.10
2018-07-15T10:02:19.127Z,29.90
2018-07-15T10:04:50.352Z,29.30
2018-07-15T10:07:21.764Z,30.20
2018-07-15T10:09:52.956Z,29.70
2018-07-15T10:12:24.609Z,29.70
2018-07-15T10:14:55.706Z,29.30
2018-07-15T10:17:26.904Z,29.00
2018-07-15T10:19:58.260Z,29.60
2018-07-15T10:22:29.343Z,30.00
2018-07-15T10:25:01.041Z,30.30
2018-07-15T10:27:32.147Z,31.10
2018-07-15T10:30:03.252Z,32.10
2018-07-15T10:32:34.433Z,31.40
2018-07-15T10:35:05.867Z,30.40
2018-07-15T10:37:37.049Z,30.20
2018-07-15T10:40:08.488Z,30.10
2018-07-15T10:42:39.831Z,30.40
2018-07-15T10:45:11.125Z,31.00
2018-07-15T10:47:42.221Z,31.00
2018-07-15T10:50:13.623Z,31.10
2018-07-15T10:52:44.815Z,31.20
2018-07-15T10:55:16.059Z,31.80
2018-07-15T11:00:18.348Z,32.20
2018-07-15T11:07:51.528Z,32.50
2018-07-15T11:10:22.938Z,32.00
2018-07-15T11:12:54.113Z,33.10
2018-07-15T11:15:25.317Z,33.70
2018-07-15T11:17:56.500Z,33.20
2018-07-15T11:20:27.960Z,33.00
2018-07-15T11:22:59.267Z,33.60
2018-07-15T11:25:30.711Z,33.50
2018-07-15T11:28:02.100Z,34.10
2018-07-15T11:30:33.453Z,34.70
2018-07-15T11:33:04.867Z,35.10
2018-07-15T11:35:36.048Z,35.10
2018-07-15T11:38:07.837Z,35.10
2018-07-15T11:40:39.360Z,34.60
2018-07-15T11:43:10.568Z,35.20
2018-07-15T11:45:42.265Z,34.80
2018-07-15T11:48:13.552Z,34.30
2018-07-15T11:50:45.284Z,34.30
2018-07-15T11:53:16.328Z,34.20
2018-07-15T11:55:47.761Z,34.20
2018-07-15T11:58:19.132Z,33.90
2018-07-15T12:00:50.269Z,33.90
2018-07-15T12:03:21.494Z,34.50
2018-07-15T12:05:53.943Z,35.20
2018-07-15T12:08:25.030Z,35.60
2018-07-15T12:10:56.256Z,35.40
2018-07-15T12:13:27.631Z,34.30
2018-07-15T12:15:59.000Z,33.80
2018-07-15T12:18:30.259Z,34.20
2018-07-15T12:21:01.432Z,34.50
2018-07-15T12:23:32.607Z,34.50
2018-07-15T12:26:03.761Z,34.70
2018-07-15T12:28:35.734Z,34.90
2018-07-15T12:31:07.025Z,35.10
2018-07-15T12:33:38.321Z,34.80
2018-07-15T12:36:09.927Z,34.80
2018-07-15T12:38:41.583Z,35.10
2018-07-15T12:41:12.673Z,35.20
2018-07-15T12:43:43.866Z,35.20
2018-07-15T12:46:15.260Z,35.20
2018-07-15T12:48:46.756Z,35.20
2018-07-15T12:51:18.058Z,35.20
2018-07-15T12:53:49.471Z,35.20
2018-07-15T12:56:20.821Z,35.10
2018-07-15T12:58:52.323Z,35.20
2018-07-15T13:03:54.195Z,34.90
2018-07-15T13:06:26.067Z,35.00
2018-07-15T13:08:57.366Z,35.20
2018-07-15T13:11:28.700Z,35.20
2018-07-15T13:13:59.963Z,34.90
2018-07-15T13:16:31.340Z,35.30
2018-07-15T13:19:03.012Z,35.60
2018-07-15T13:21:34.348Z,35.90
2018-07-15T13:24:06.173Z,35.80
2018-07-15T13:26:37.300Z,35.40
2018-07-15T13:29:08.724Z,35.70
2018-07-15T13:31:40.019Z,35.70
2018-07-15T13:34:11.276Z,36.10
2018-07-15T13:36:44.044Z,36.30
2018-07-15T13:39:15.223Z,35.90
2018-07-15T13:41:46.680Z,35.60
2018-07-15T13:44:18.279Z,35.20
2018-07-15T13:46:49.372Z,35.20
2018-07-15T13:49:20.744Z,35.10
2018-07-15T13:51:52.147Z,35.20
2018-07-15T13:54:24.173Z,35.40
2018-07-15T13:56:55.753Z,35.80
2018-07-15T13:59:28.503Z,36.00
2018-07-15T14:01:59.849Z,36.10
2018-07-15T14:04:31.830Z,35.80
2018-07-15T14:07:03.271Z,35.70
2018-07-15T14:09:34.615Z,35.50
2018-07-15T14:12:05.902Z,35.70
2018-07-15T14:14:37.474Z,35.20
2018-07-15T14:17:08.834Z,35.00
2018-07-15T14:19:40.149Z,34.90
2018-07-15T14:22:11.396Z,34.40
2018-07-15T14:24:42.543Z,34.10
2018-07-15T14:27:13.857Z,33.90
2018-07-15T14:32:17.275Z,34.10
2018-07-15T14:34:48.655Z,33.90
2018-07-15T14:37:19.891Z,34.10
2018-07-15T14:39:50.898Z,33.60
2018-07-15T14:42:22.253Z,33.80
2018-07-15T14:44:53.480Z,34.00
2018-07-15T14:47:24.928Z,34.20
2018-07-15T14:49:56.532Z,34.20
2018-07-15T14:52:28.137Z,34.00
2018-07-15T14:57:30.120Z,34.00
2018-07-15T15:00:01.385Z,34.10
2018-07-15T15:02:32.580Z,33.70
2018-07-15T15:05:03.776Z,33.50
2018-07-15T15:07:34.971Z,33.30
2018-07-15T15:10:06.780Z,33.50
2018-07-15T15:12:38.111Z,33.60
2018-07-15T15:15:09.322Z,33.80
2018-07-15T15:17:40.913Z,33.70
2018-07-15T15:20:12.323Z,33.50
2018-07-15T15:22:43.681Z,33.50
2018-07-15T15:25:15.781Z,33.60
2018-07-15T15:27:47.033Z,33.60
2018-07-15T15:30:18.404Z,32.70
2018-07-15T15:32:49.928Z,32.90
2018-07-15T15:35:21.240Z,32.70
2018-07-15T15:37:54.869Z,32.50
2018-07-15T15:40:25.989Z,32.60
2018-07-15T15:42:57.371Z,32.10
2018-07-15T15:45:28.788Z,32.10
2018-07-15T15:48:00.134Z,31.80
2018-07-15T15:50:31.321Z,31.80
2018-07-15T15:53:02.684Z,31.90
2018-07-15T15:55:33.991Z,32.20
2018-07-15T15:58:05.231Z,32.00
2018-07-15T16:00:36.635Z,32.00
2018-07-15T16:03:08.477Z,32.20
2018-07-15T16:05:40.056Z,32.10
2018-07-15T16:08:11.438Z,32.00
2018-07-15T16:10:42.832Z,31.80
2018-07-15T16:13:14.626Z,32.00
2018-07-15T16:15:46.040Z,32.00
2018-07-15T16:18:19.132Z,32.00
2018-07-15T16:20:51.149Z,32.00
2018-07-15T16:23:22.598Z,32.00
2018-07-15T16:25:54.168Z,32.10
2018-07-15T16:28:25.517Z,32.20
2018-07-15T16:30:57.315Z,32.30
2018-07-15T16:33:28.730Z,32.30
2018-07-15T16:35:59.873Z,32.10
2018-07-15T16:38:31.518Z,31.90
2018-07-15T16:41:03.694Z,32.10
2018-07-15T16:43:34.831Z,32.20
2018-07-15T16:46:06.236Z,32.10
2018-07-15T16:48:37.568Z,32.30
2018-07-15T16:51:08.968Z,32.30
2018-07-15T16:53:40.368Z,32.30
2018-07-15T16:56:12.566Z,32.20
2018-07-15T16:58:43.901Z,32.30
2018-07-15T17:01:14.999Z,32.30
2018-07-15T17:03:46.295Z,32.30
2018-07-15T17:06:17.523Z,31.80
2018-07-15T17:08:49.092Z,31.60
2018-07-15T17:11:20.440Z,31.40
2018-07-15T17:13:51.434Z,31.40
2018-07-15T17:16:22.635Z,31.20
2018-07-15T17:18:53.763Z,31.20
2018-07-15T17:23:55.563Z,31.10
2018-07-15T17:26:26.964Z,31.20
2018-07-15T17:29:00.245Z,31.30
2018-07-15T17:31:31.589Z,31.50
2018-07-15T17:34:03.450Z,31.40
2018-07-15T17:36:34.767Z,31.50
2018-07-15T17:39:06.467Z,31.20
2018-07-15T17:41:37.502Z,31.20
2018-07-15T17:44:08.505Z,31.00
2018-07-15T17:46:40.154Z,31.00
2018-07-15T17:49:12.955Z,30.90
2018-07-15T17:51:44.286Z,30.70
2018-07-15T17:56:46.389Z,30.90
2018-07-15T18:01:48.434Z,30.90
2018-07-15T18:04:19.599Z,30.80
2018-07-15T18:06:50.829Z,30.70
2018-07-15T18:09:22.394Z,30.40
2018-07-15T18:11:53.590Z,30.20
2018-07-15T18:14:25.035Z,30.10
2018-07-15T18:16:56.408Z,30.00
2018-07-15T18:19:28.145Z,30.00
2018-07-15T18:22:03.974Z,30.10
2018-07-15T18:27:06.390Z,29.90
2018-07-15T18:29:37.623Z,29.90
2018-07-15T18:32:08.839Z,30.00
2018-07-15T18:34:40.196Z,29.90
2018-07-15T18:37:11.792Z,29.90
2018-07-15T18:39:43.703Z,29.80
2018-07-15T18:42:15.411Z,29.90
2018-07-15T18:44:46.956Z,29.90
2018-07-15T18:47:18.348Z,29.90
2018-07-15T18:49:49.506Z,29.80
2018-07-15T18:52:20.536Z,29.70
2018-07-15T18:54:51.988Z,29.70
2018-07-15T18:57:23.193Z,29.70
2018-07-15T18:59:55.307Z,29.70
2018-07-15T19:02:26.715Z,29.60
2018-07-15T19:04:58.682Z,29.60
2018-07-15T19:07:30.083Z,29.50
2018-07-15T19:10:01.464Z,29.50
2018-07-15T19:12:32.804Z,29.40
2018-07-15T19:15:04.311Z,29.30
2018-07-15T19:17:35.559Z,29.20
2018-07-15T19:20:07.016Z,29.30
2018-07-15T19:22:38.359Z,29.20
2018-07-15T19:25:10.183Z,29.20
2018-07-15T19:27:41.333Z,29.20
2018-07-15T19:30:12.512Z,29.20
2018-07-15T19:32:43.708Z,29.00
2018-07-15T19:35:14.977Z,29.00
2018-07-15T19:37:46.263Z,28.90
2018-07-15T19:40:17.464Z,28.90
2018-07-15T19:42:48.705Z,28.80
2018-07-15T19:45:20.055Z,28.60
2018-07-15T19:47:51.790Z,28.50
2018-07-15T19:50:23.006Z,28.40
2018-07-15T19:52:54.680Z,28.10
2018-07-15T19:55:26.103Z,27.90
2018-07-15T19:57:57.375Z,27.80
2018-07-15T20:00:28.396Z,27.70
2018-07-15T20:02:59.805Z,27.60
2018-07-15T20:05:31.299Z,27.40
2018-07-15T20:08:02.366Z,27.20
2018-07-15T20:10:33.558Z,27.10
2018-07-15T20:13:05.056Z,27.00
2018-07-15T20:18:07.226Z,27.00
2018-07-15T20:20:38.332Z,27.00
2018-07-15T20:23:09.684Z,26.90
2018-07-15T20:25:41.239Z,26.90
2018-07-15T20:28:12.466Z,26.80
2018-07-15T20:30:43.471Z,26.70
2018-07-15T20:33:14.777Z,26.70
2018-07-15T20:35:46.735Z,26.70
2018-07-15T20:38:18.296Z,26.50
2018-07-15T20:40:49.479Z,26.40
2018-07-15T20:43:20.627Z,26.40
2018-07-15T20:45:51.813Z,26.30
2018-07-15T20:48:23.197Z,26.40
2018-07-15T20:50:54.372Z,26.40
2018-07-15T20:53:25.665Z,26.30
2018-07-15T20:55:57.474Z,26.10
2018-07-15T20:58:28.677Z,26.00
2018-07-15T21:01:00.744Z,26.00
2018-07-15T21:03:33.189Z,25.90
2018-07-15T21:08:35.040Z,26.00
2018-07-15T21:11:06.082Z,25.90
2018-07-15T21:13:37.262Z,26.00
2018-07-15T21:16:14.823Z,25.90
2018-07-15T21:18:46.247Z,25.80
2018-07-15T21:23:48.813Z,25.70
2018-07-15T21:26:20.119Z,25.70
2018-07-15T21:28:51.348Z,25.70
2018-07-15T21:31:22.533Z,25.60
2018-07-15T21:33:53.908Z,25.50
2018-07-15T21:36:25.087Z,25.40
2018-07-15T21:38:56.448Z,25.50
2018-07-15T21:41:27.683Z,25.50
2018-07-15T21:43:59.083Z,25.50
2018-07-15T21:46:30.708Z,25.50
2018-07-15T21:50:05.188Z,25.70
2018-07-15T21:52:36.976Z,25.80
2018-07-15T21:55:08.974Z,25.70
2018-07-15T21:57:40.135Z,25.70
2018-07-15T22:00:11.945Z,25.70
2018-07-15T22:02:43.319Z,25.80
2018-07-15T22:05:14.915Z,25.90
2018-07-15T22:08:01.728Z,25.80
2018-07-15T22:10:45.980Z,25.90
2018-07-15T22:13:17.305Z,25.90
2018-07-15T22:15:48.691Z,25.90
2018-07-15T22:18:20.129Z,26.00
2018-07-15T22:20:51.478Z,26.00
2018-07-15T22:23:24.604Z,26.00
2018-07-15T22:25:56.018Z,26.10
2018-07-15T22:28:27.320Z,26.20
2018-07-15T22:30:58.538Z,26.00
2018-07-15T22:33:30.104Z,25.80
2018-07-15T22:36:01.419Z,25.80
2018-07-15T22:38:32.880Z,25.90
2018-07-15T22:41:04.572Z,25.90
2018-07-15T22:43:35.908Z,25.70
2018-07-15T22:46:10.503Z,25.50
2018-07-15T22:48:41.885Z,25.40
2018-07-15T22:51:13.336Z,25.30
2018-07-15T22:56:16.651Z,24.70
2018-07-15T22:58:48.025Z,24.60
2018-07-15T23:01:19.474Z,24.40
2018-07-15T23:06:22.197Z,24.00
2018-07-15T23:08:53.545Z,24.00
2018-07-15T23:11:25.891Z,23.90
2018-07-15T23:13:56.939Z,23.70
2018-07-15T23:16:29.164Z,23.60
2018-07-15T23:19:00.496Z,23.40
2018-07-15T23:21:31.696Z,23.20
2018-07-15T23:24:02.912Z,23.10
2018-07-15T23:26:34.271Z,22.90
2018-07-15T23:29:05.434Z,22.60
2018-07-15T23:31:36.816Z,22.50
2018-07-15T23:34:08.071Z,22.40
2018-07-15T23:36:39.255Z,22.40
2018-07-15T23:39:10.609Z,22.50
2018-07-15T23:41:41.975Z,22.30
2018-07-15T23:44:13.171Z,22.10
2018-07-15T23:46:44.376Z,21.90
2018-07-15T23:49:15.556Z,22.00
2018-07-15T23:51:46.961Z,21.90
2018-07-15T23:54:18.603Z,21.80
2018-07-15T23:56:49.917Z,21.60
